createdAt,value
2023-05-12T00:01:46.119Z,101488.44
2023-05-12T00:04:13.248Z,101493.75
2023-05-12T00:06:40.286Z,101491.78
2023-05-12T00:09:08.059Z,101493.75
2023-05-12T00:11:35.214Z,101487.91
2023-05-12T00:14:02.541Z,101491.53
2023-05-12T00:16:30.099Z,101494.19
2023-05-12T00:18:57.209Z,101487.41
2023-05-12T00:21:24.374Z,101487.88
2023-05-12T00:23:51.473Z,101489.34
2023-05-12T00:26:18.486Z,101492.13
2023-05-12T00:28:45.996Z,101490.13
2023-05-12T00:31:13.011Z,101491.88
2023-05-12T00:33:40.199Z,101493.19
2023-05-12T00:36:08.238Z,101501.00
2023-05-12T00:38:37.489Z,101493.53
2023-05-12T00:41:05.032Z,101502.31
2023-05-12T00:43:32.298Z,101499.66
2023-05-12T00:46:00.650Z,101501.28
2023-05-12T00:48:27.778Z,101502.44
2023-05-12T00:50:55.730Z,101498.13
2023-05-12T00:53:22.794Z,101508.56
2023-05-12T00:55:50.130Z,101504.94
2023-05-12T00:58:17.856Z,101511.22
2023-05-12T01:00:47.508Z,101510.25
2023-05-12T01:03:15.270Z,101516.81
2023-05-12T01:05:49.815Z,101508.88
2023-05-12T01:08:18.840Z,101505.56
2023-05-12T01:10:46.970Z,101505.88
2023-05-12T01:13:14.968Z,101520.75
2023-05-12T01:15:47.994Z,101514.63
2023-05-12T01:18:19.601Z,101507.03
2023-05-12T01:20:48.907Z,101518.25
2023-05-12T01:23:19.750Z,101518.72
2023-05-12T01:25:51.420Z,101517.91
2023-05-12T01:28:19.732Z,101523.38
2023-05-12T01:30:48.554Z,101526.00
2023-05-12T01:33:16.416Z,101526.47
2023-05-12T01:35:44.377Z,101525.28
2023-05-12T01:38:11.749Z,101523.63
2023-05-12T01:40:38.884Z,101529.38
2023-05-12T01:43:06.833Z,101532.03
2023-05-12T01:45:34.381Z,101531.34
2023-05-12T01:48:02.252Z,101533.47
2023-05-12T01:50:31.486Z,101531.81
2023-05-12T01:52:59.462Z,101557.59
2023-05-12T01:55:26.780Z,101531.16
2023-05-12T01:57:55.296Z,101540.56
2023-05-12T02:00:27.378Z,101538.91
2023-05-12T02:02:55.497Z,101548.50
2023-05-12T02:05:23.951Z,101544.03
2023-05-12T02:07:52.279Z,101536.13
2023-05-12T02:10:24.689Z,101552.81
2023-05-12T02:12:53.410Z,101538.25
2023-05-12T02:15:22.110Z,101537.22
2023-05-12T02:17:51.521Z,101537.22
2023-05-12T02:20:19.183Z,101542.31
2023-05-12T02:22:46.969Z,101551.56
2023-05-12T02:25:14.139Z,101550.88
2023-05-12T02:27:42.482Z,101551.19
2023-05-12T02:30:10.538Z,101548.69
2023-05-12T02:32:38.943Z,101559.25
2023-05-12T02:35:07.493Z,101557.28
2023-05-12T02:37:35.665Z,101568.63
2023-05-12T02:40:03.350Z,101564.53
2023-05-12T02:42:35.855Z,101571.47
2023-05-12T02:45:04.164Z,101574.00
2023-05-12T02:47:33.377Z,101576.13
2023-05-12T02:50:00.756Z,101574.78
2023-05-12T02:52:28.418Z,101585.34
2023-05-12T02:54:56.662Z,101586.44
2023-05-12T02:57:24.678Z,101585.41
2023-05-12T02:59:52.354Z,101590.38
2023-05-12T03:02:19.642Z,101585.78
2023-05-12T03:04:47.027Z,101599.66
2023-05-12T03:07:14.148Z,101593.84
2023-05-12T03:09:43.789Z,101603.19
2023-05-12T03:12:11.050Z,101600.69
2023-05-12T03:14:38.525Z,101600.53
2023-05-12T03:17:05.805Z,101602.34
2023-05-12T03:19:33.063Z,101606.81
2023-05-12T03:22:00.422Z,101602.88
2023-05-12T03:24:27.865Z,101606.34
2023-05-12T03:26:55.555Z,101610.34
2023-05-12T03:29:23.021Z,101608.56
2023-05-12T03:31:50.119Z,101606.91
2023-05-12T03:34:17.490Z,101607.72
2023-05-12T03:36:44.654Z,101618.13
2023-05-12T03:39:12.697Z,101616.03
2023-05-12T03:41:40.054Z,101611.44
2023-05-12T03:44:09.098Z,101616.28
2023-05-12T03:46:36.373Z,101620.13
2023-05-12T03:49:03.807Z,101623.16
2023-05-12T03:51:31.572Z,101626.50
2023-05-12T03:53:59.123Z,101630.63
2023-05-12T03:56:26.498Z,101624.69
2023-05-12T03:58:53.682Z,101631.78
2023-05-12T04:01:21.888Z,101639.16
2023-05-12T04:03:49.453Z,101639.38
2023-05-12T04:06:16.831Z,101639.38
2023-05-12T04:08:44.044Z,101638.44
2023-05-12T04:11:11.653Z,101641.38
2023-05-12T04:13:39.243Z,101642.22
2023-05-12T04:16:06.702Z,101645.38
2023-05-12T04:18:36.291Z,101639.13
2023-05-12T04:21:03.701Z,101645.06
2023-05-12T04:23:31.701Z,101638.69
2023-05-12T04:25:59.303Z,101649.13
2023-05-12T04:28:26.447Z,101647.13
2023-05-12T04:30:55.905Z,101653.41
2023-05-12T04:33:23.249Z,101656.88
2023-05-12T04:35:55.888Z,101657.88
2023-05-12T04:38:23.354Z,101654.00
2023-05-12T04:40:50.689Z,101658.59
2023-05-12T04:45:48.390Z,101662.06
2023-05-12T04:48:15.641Z,101662.19
2023-05-12T04:50:42.982Z,101662.91
2023-05-12T04:53:11.490Z,101666.50
2023-05-12T04:55:39.182Z,101673.59
2023-05-12T04:58:06.527Z,101669.84
2023-05-12T05:00:34.064Z,101671.94
2023-05-12T05:03:01.821Z,101672.78
2023-05-12T05:05:29.194Z,101677.78
2023-05-12T05:07:56.354Z,101670.69
2023-05-12T05:10:23.615Z,101674.53
2023-05-12T05:12:50.662Z,101688.44
2023-05-12T05:15:17.923Z,101686.09
2023-05-12T05:17:49.759Z,101694.84
2023-05-12T05:20:19.717Z,101693.75
2023-05-12T05:22:47.370Z,101698.94
2023-05-12T05:25:15.700Z,101702.41
2023-05-12T05:27:43.258Z,101707.41
2023-05-12T05:30:11.634Z,101706.25
2023-05-12T05:32:40.804Z,101704.63
2023-05-12T05:35:09.065Z,101708.25
2023-05-12T05:37:36.584Z,101715.03
2023-05-12T05:40:05.820Z,101710.72
2023-05-12T05:42:34.930Z,101711.94
2023-05-12T05:45:03.788Z,101710.69
2023-05-12T05:47:32.964Z,101720.00
2023-05-12T05:50:02.168Z,101710.94
2023-05-12T05:52:30.475Z,101717.31
2023-05-12T05:54:58.924Z,101711.56
2023-05-12T05:57:28.780Z,101713.91
2023-05-12T05:59:56.591Z,101719.19
2023-05-12T06:02:24.266Z,101718.59
2023-05-12T06:04:55.550Z,101726.91
2023-05-12T06:07:24.176Z,101723.97
2023-05-12T06:09:57.692Z,101731.31
2023-05-12T06:12:26.875Z,101735.16
2023-05-12T06:14:55.339Z,101738.03
2023-05-12T06:17:32.662Z,101733.28
2023-05-12T06:20:23.600Z,101731.56
2023-05-12T06:22:56.930Z,101739.88
2023-05-12T06:25:25.764Z,101736.66
2023-05-12T06:27:53.594Z,101728.06
2023-05-12T06:30:23.558Z,101737.09
2023-05-12T06:32:53.582Z,101743.88
2023-05-12T06:35:25.836Z,101742.88
2023-05-12T06:37:55.308Z,101744.69
2023-05-12T06:40:28.526Z,101747.22
2023-05-12T06:42:56.372Z,101744.78
2023-05-12T06:45:29.308Z,101743.50
2023-05-12T06:47:58.885Z,101749.69
2023-05-12T06:50:34.645Z,101749.06
2023-05-12T06:53:08.675Z,101746.03
2023-05-12T06:55:35.995Z,101748.16
2023-05-12T06:58:03.614Z,101749.53
2023-05-12T07:00:31.084Z,101755.84
2023-05-12T07:02:58.244Z,101750.22
2023-05-12T07:05:25.584Z,101755.06
2023-05-12T07:07:52.970Z,101755.56
2023-05-12T07:10:21.472Z,101753.59
2023-05-12T07:12:48.632Z,101760.72
2023-05-12T07:15:15.754Z,101769.66
2023-05-12T07:17:42.929Z,101758.88
2023-05-12T07:20:10.379Z,101766.81
2023-05-12T07:22:39.033Z,101761.19
2023-05-12T07:25:08.064Z,101769.66
2023-05-12T07:27:35.534Z,101764.19
2023-05-12T07:30:03.077Z,101763.06
2023-05-12T07:32:30.387Z,101749.34
2023-05-12T07:34:58.194Z,101756.25
2023-05-12T07:37:27.455Z,101764.88
2023-05-12T07:39:54.623Z,101762.75
2023-05-12T07:42:22.896Z,101768.25
2023-05-12T07:44:50.215Z,101761.41
2023-05-12T07:47:17.461Z,101757.09
2023-05-12T07:49:47.170Z,101758.72
2023-05-12T07:52:14.556Z,101761.53
2023-05-12T07:54:41.696Z,101764.03
2023-05-12T07:57:08.881Z,101754.41
2023-05-12T07:59:36.316Z,101771.97
2023-05-12T08:02:03.769Z,101767.00
2023-05-12T08:04:31.463Z,101766.66
2023-05-12T08:06:59.677Z,101776.31
2023-05-12T08:09:27.067Z,101770.50
2023-05-12T08:11:54.935Z,101775.97
2023-05-12T08:14:22.992Z,101772.66
2023-05-12T08:16:50.296Z,101773.66
2023-05-12T08:19:17.614Z,101770.00
2023-05-12T08:21:45.051Z,101766.16
2023-05-12T08:24:12.181Z,101766.81
2023-05-12T08:26:39.321Z,101767.00
2023-05-12T08:29:07.295Z,101764.81
2023-05-12T08:31:34.630Z,101768.31
2023-05-12T08:34:09.885Z,101780.59
2023-05-12T08:36:38.865Z,101780.78
2023-05-12T08:39:06.461Z,101775.63
2023-05-12T08:41:45.135Z,101775.13
2023-05-12T08:44:13.574Z,101762.69
2023-05-12T08:46:41.319Z,101772.16
2023-05-12T08:49:12.924Z,101779.09
2023-05-12T08:51:42.474Z,101777.78
2023-05-12T08:54:11.029Z,101779.94
2023-05-12T08:59:10.814Z,101775.97
2023-05-12T09:01:43.206Z,101780.09
2023-05-12T09:04:10.713Z,101783.78
2023-05-12T09:06:38.054Z,101780.63
2023-05-12T09:09:05.442Z,101771.81
2023-05-12T09:11:32.706Z,101775.47
2023-05-12T09:14:10.934Z,101798.16
2023-05-12T09:16:44.041Z,101783.69
2023-05-12T09:19:11.444Z,101785.72
2023-05-12T09:21:39.024Z,101789.00
2023-05-12T09:24:08.190Z,101786.84
2023-05-12T09:26:46.229Z,101792.63
2023-05-12T09:29:23.979Z,101793.81
2023-05-12T09:31:59.427Z,101795.06
2023-05-12T09:34:31.035Z,101800.09
2023-05-12T09:37:05.897Z,101801.38
2023-05-12T09:39:33.645Z,101799.19
2023-05-12T09:42:00.861Z,101792.38
2023-05-12T09:44:29.769Z,101810.31
2023-05-12T09:47:06.810Z,101805.69
2023-05-12T09:49:33.984Z,101807.50
2023-05-12T09:52:01.180Z,101829.38
2023-05-12T09:54:29.885Z,101823.72
2023-05-12T09:57:04.642Z,101813.84
2023-05-12T09:59:34.190Z,101824.88
2023-05-12T10:02:05.120Z,101824.53
2023-05-12T10:04:40.571Z,101821.44
2023-05-12T10:07:15.158Z,101820.53
2023-05-12T10:09:44.757Z,101823.06
2023-05-12T10:12:12.295Z,101815.94
2023-05-12T10:14:39.537Z,101819.09
2023-05-12T10:17:10.464Z,101829.31
2023-05-12T10:19:39.174Z,101833.66
2023-05-12T10:22:08.334Z,101825.19
2023-05-12T10:24:36.981Z,101831.00
2023-05-12T10:27:06.998Z,101825.19
2023-05-12T10:29:35.539Z,101838.78
2023-05-12T10:32:02.912Z,101830.38
2023-05-12T10:34:33.760Z,101839.91
2023-05-12T10:37:14.006Z,101825.47
2023-05-12T10:39:51.996Z,101818.13
2023-05-12T10:42:26.237Z,101823.75
2023-05-12T10:44:55.092Z,101816.38
2023-05-12T10:47:36.717Z,101802.88
2023-05-12T10:50:04.076Z,101805.06
2023-05-12T10:52:31.263Z,101808.22
2023-05-12T10:55:03.285Z,101801.41
2023-05-12T10:57:32.349Z,101804.28
2023-05-12T11:00:02.251Z,101798.53
2023-05-12T11:02:34.673Z,101796.72
2023-05-12T11:05:17.301Z,101803.44
2023-05-12T11:07:50.884Z,101792.34
2023-05-12T11:10:20.193Z,101788.53
2023-05-12T11:12:50.131Z,101797.16
2023-05-12T11:15:18.260Z,101781.66
2023-05-12T11:17:46.906Z,101781.13
2023-05-12T11:20:27.618Z,101792.34
2023-05-12T11:22:57.163Z,101795.13
2023-05-12T11:25:29.884Z,101794.75
2023-05-12T11:27:57.207Z,101787.81
2023-05-12T11:30:24.462Z,101793.53
2023-05-12T11:33:02.092Z,101791.34
2023-05-12T11:35:32.657Z,101804.75
2023-05-12T11:37:59.915Z,101790.50
2023-05-12T11:40:27.677Z,101778.56
2023-05-12T11:42:56.619Z,101778.78
2023-05-12T11:45:28.042Z,101784.38
2023-05-12T11:48:08.176Z,101787.84
2023-05-12T11:50:39.581Z,101783.72
2023-05-12T11:53:11.676Z,101795.81
2023-05-12T11:55:47.813Z,101785.38
2023-05-12T11:58:22.394Z,101786.38
2023-05-12T12:00:50.172Z,101773.50
2023-05-12T12:03:17.849Z,101776.50
2023-05-12T12:05:57.525Z,101786.81
2023-05-12T12:08:25.064Z,101780.91
2023-05-12T12:10:52.260Z,101782.81
2023-05-12T12:13:22.758Z,101786.34
2023-05-12T12:15:53.078Z,101769.25
2023-05-12T12:18:20.583Z,101767.88
2023-05-12T12:20:48.245Z,101774.84
2023-05-12T12:23:15.715Z,101770.09
2023-05-12T12:25:44.019Z,101774.78
2023-05-12T12:28:11.526Z,101775.94
2023-05-12T12:30:41.881Z,101773.75
2023-05-12T12:33:09.274Z,101789.25
2023-05-12T12:35:36.454Z,101778.94
2023-05-12T12:38:03.678Z,101771.69
2023-05-12T12:40:31.562Z,101786.59
2023-05-12T12:43:01.807Z,101786.00
2023-05-12T12:45:31.322Z,101785.53
2023-05-12T12:47:58.481Z,101774.09
2023-05-12T12:50:27.328Z,101767.13
2023-05-12T12:52:54.702Z,101772.97
2023-05-12T12:55:22.402Z,101784.94
2023-05-12T12:57:51.462Z,101773.19
2023-05-12T13:00:19.991Z,101787.09
2023-05-12T13:02:47.898Z,101788.56
2023-05-12T13:05:16.817Z,101769.88
2023-05-12T13:07:44.177Z,101796.03
2023-05-12T13:10:12.643Z,101796.63
2023-05-12T13:12:39.962Z,101784.19
2023-05-12T13:15:08.001Z,101779.50
2023-05-12T13:17:35.317Z,101790.22
2023-05-12T13:20:03.143Z,101795.13
2023-05-12T13:22:30.672Z,101791.13
2023-05-12T13:24:58.091Z,101806.50
2023-05-12T13:27:25.512Z,101776.84
2023-05-12T13:29:53.193Z,101792.56
2023-05-12T13:32:21.439Z,101792.50
2023-05-12T13:34:48.955Z,101796.97
2023-05-12T13:37:17.132Z,101791.66
2023-05-12T13:39:44.577Z,101797.78
2023-05-12T13:42:11.795Z,101806.25
2023-05-12T13:44:39.049Z,101796.66
2023-05-12T13:47:09.370Z,101800.97
2023-05-12T13:49:37.435Z,101803.91
2023-05-12T13:52:05.388Z,101819.47
2023-05-12T13:54:32.890Z,101806.72
2023-05-12T13:57:04.661Z,101807.00
2023-05-12T13:59:32.469Z,101806.22
2023-05-12T14:02:00.239Z,101796.34
2023-05-12T14:04:27.959Z,101805.41
2023-05-12T14:06:55.959Z,101799.28
2023-05-12T14:09:23.702Z,101810.72
2023-05-12T14:11:51.069Z,101810.00
2023-05-12T14:14:18.708Z,101794.28
2023-05-12T14:16:46.537Z,101806.00
2023-05-12T14:19:14.038Z,101798.75
2023-05-12T14:21:41.908Z,101798.59
2023-05-12T14:24:10.568Z,101792.84
2023-05-12T14:26:38.212Z,101801.31
2023-05-12T14:29:06.964Z,101803.16
2023-05-12T14:31:36.512Z,101812.91
2023-05-12T14:34:04.911Z,101810.09
2023-05-12T14:36:32.756Z,101810.53
2023-05-12T14:39:00.112Z,101803.97
2023-05-12T14:41:27.734Z,101823.31
2023-05-12T14:43:55.516Z,101824.84
2023-05-12T14:46:26.516Z,101825.69
2023-05-12T14:48:53.850Z,101830.81
2023-05-12T14:51:21.264Z,101819.41
2023-05-12T14:53:49.179Z,101819.41
2023-05-12T14:56:16.721Z,101825.13
2023-05-12T14:58:45.828Z,101819.84
2023-05-12T15:01:13.430Z,101832.25
2023-05-12T15:03:40.867Z,101834.91
2023-05-12T15:06:08.742Z,101839.03
2023-05-12T15:08:36.499Z,101841.09
2023-05-12T15:11:03.910Z,101838.31
2023-05-12T15:13:32.478Z,101849.44
2023-05-12T15:15:59.794Z,101846.78
2023-05-12T15:18:27.279Z,101842.47
2023-05-12T15:20:54.752Z,101842.31
2023-05-12T15:23:22.685Z,101848.28
2023-05-12T15:25:50.139Z,101839.50
2023-05-12T15:28:17.810Z,101838.69
2023-05-12T15:30:46.131Z,101846.31
2023-05-12T15:33:13.485Z,101862.66
2023-05-12T15:35:41.108Z,101868.78
2023-05-12T15:38:08.683Z,101862.94
2023-05-12T15:40:35.819Z,101851.81
2023-05-12T15:43:03.554Z,101862.41
2023-05-12T15:45:31.828Z,101846.69
2023-05-12T15:47:59.366Z,101856.28
2023-05-12T15:50:26.741Z,101854.03
2023-05-12T15:52:54.094Z,101855.00
2023-05-12T15:55:21.604Z,101851.25
2023-05-12T15:57:54.041Z,101858.34
2023-05-12T16:00:23.123Z,101860.69
2023-05-12T16:02:50.566Z,101855.38
2023-05-12T16:05:18.305Z,101853.44
2023-05-12T16:07:46.987Z,101858.72
2023-05-12T16:10:14.465Z,101851.31
2023-05-12T16:12:41.846Z,101850.34
2023-05-12T16:15:10.188Z,101850.47
2023-05-12T16:17:37.513Z,101858.03
2023-05-12T16:20:05.591Z,101848.72
2023-05-12T16:22:33.083Z,101850.41
2023-05-12T16:25:00.517Z,101854.84
2023-05-12T16:27:28.189Z,101852.22
2023-05-12T16:29:56.074Z,101854.47
2023-05-12T16:32:23.863Z,101866.53
2023-05-12T16:34:51.438Z,101864.28
2023-05-12T16:37:18.625Z,101865.25
2023-05-12T16:39:45.976Z,101865.25
2023-05-12T16:42:13.775Z,101861.94
2023-05-12T16:44:41.109Z,101870.72
2023-05-12T16:47:11.598Z,101863.63
2023-05-12T16:49:39.049Z,101872.00
2023-05-12T16:52:07.114Z,101867.03
2023-05-12T16:54:34.465Z,101866.72
2023-05-12T16:57:03.370Z,101884.25
2023-05-12T16:59:32.808Z,101875.88
2023-05-12T17:02:00.532Z,101874.78
2023-05-12T17:04:27.983Z,101883.16
2023-05-12T17:06:55.313Z,101883.16
2023-05-12T17:09:23.661Z,101898.59
2023-05-12T17:11:51.025Z,101883.81
2023-05-12T17:14:21.585Z,101891.94
2023-05-12T17:16:49.717Z,101900.72
2023-05-12T17:19:17.195Z,101892.63
2023-05-12T17:21:44.642Z,101917.59
2023-05-12T17:24:12.026Z,101904.38
2023-05-12T17:26:39.423Z,101901.50
2023-05-12T17:29:07.017Z,101902.47
2023-05-12T17:31:34.659Z,101901.63
2023-05-12T17:34:02.168Z,101906.63
2023-05-12T17:36:29.467Z,101910.78
2023-05-12T17:38:57.103Z,101906.47
2023-05-12T17:41:25.456Z,101917.19
2023-05-12T17:43:54.570Z,101907.00
2023-05-12T17:46:24.650Z,101920.22
2023-05-12T17:48:52.314Z,101915.94
2023-05-12T17:51:19.810Z,101921.06
2023-05-12T17:53:47.283Z,101924.56
2023-05-12T17:56:14.867Z,101936.69
2023-05-12T17:58:42.625Z,101944.47
2023-05-12T18:01:10.274Z,101941.16
2023-05-12T18:03:38.589Z,101943.38
2023-05-12T18:06:06.155Z,101931.28
2023-05-12T18:08:33.632Z,101926.00
2023-05-12T18:11:00.945Z,101931.72
2023-05-12T18:13:28.390Z,101937.00
2023-05-12T18:15:55.834Z,101927.38
2023-05-12T18:18:23.159Z,101944.91
2023-05-12T18:20:50.546Z,101941.59
2023-05-12T18:23:17.754Z,101940.34
2023-05-12T18:25:45.112Z,101948.81
2023-05-12T18:28:12.862Z,101953.00
2023-05-12T18:30:40.440Z,101957.84
2023-05-12T18:33:08.149Z,101957.25
2023-05-12T18:35:35.611Z,101956.56
2023-05-12T18:38:02.994Z,101952.41
2023-05-12T18:40:33.352Z,101961.75
2023-05-12T18:43:00.879Z,101966.78
2023-05-12T18:45:28.146Z,101969.41
2023-05-12T18:47:55.554Z,101975.09
2023-05-12T18:50:22.893Z,101985.94
2023-05-12T18:52:50.155Z,101972.59
2023-05-12T18:55:17.755Z,101979.69
2023-05-12T18:57:45.476Z,101989.59
2023-05-12T19:00:13.802Z,101985.28
2023-05-12T19:02:42.733Z,101994.19
2023-05-12T19:05:10.242Z,101982.34
2023-05-12T19:07:37.698Z,101993.47
2023-05-12T19:10:05.610Z,101996.94
2023-05-12T19:12:33.026Z,101998.22
2023-05-12T19:15:00.270Z,101992.78
2023-05-12T19:17:30.013Z,101999.75
2023-05-12T19:19:57.423Z,102011.31
2023-05-12T19:22:26.413Z,102019.50
2023-05-12T19:24:53.900Z,102014.78
2023-05-12T19:27:21.107Z,102015.44
2023-05-12T19:29:48.566Z,102015.88
2023-05-12T19:32:16.844Z,102022.00
2023-05-12T19:34:45.223Z,102032.03
2023-05-12T19:37:12.664Z,102024.22
2023-05-12T19:39:39.822Z,102035.78
2023-05-12T19:42:07.215Z,102030.34
2023-05-12T19:44:34.561Z,102028.41
2023-05-12T19:47:06.102Z,102032.28
2023-05-12T19:49:34.919Z,102038.13
2023-05-12T19:52:03.109Z,102040.91
2023-05-12T19:54:31.186Z,102044.22
2023-05-12T19:57:00.190Z,102052.44
2023-05-12T19:59:27.375Z,102059.13
2023-05-12T20:01:54.706Z,102045.94
2023-05-12T20:04:21.958Z,102048.44
2023-05-12T20:06:49.432Z,102058.16
2023-05-12T20:09:16.686Z,102055.53
2023-05-12T20:11:43.813Z,102064.16
2023-05-12T20:14:11.113Z,102063.59
2023-05-12T20:16:38.632Z,102072.88
2023-05-12T20:19:05.958Z,102062.47
2023-05-12T20:21:33.152Z,102076.09
2023-05-12T20:24:02.865Z,102074.66
2023-05-12T20:26:31.032Z,102070.38
2023-05-12T20:28:59.856Z,102073.03
2023-05-12T20:31:27.949Z,102078.44
2023-05-12T20:33:57.680Z,102074.94
2023-05-12T20:36:24.976Z,102072.44
2023-05-12T20:38:52.215Z,102082.31
2023-05-12T20:41:19.851Z,102081.91
2023-05-12T20:43:47.002Z,102080.47
2023-05-12T20:46:14.310Z,102076.03
2023-05-12T20:48:41.586Z,102086.47
2023-05-12T20:51:12.846Z,102086.75
2023-05-12T20:53:40.235Z,102084.94
2023-05-12T20:56:08.627Z,102082.56
2023-05-12T20:58:36.638Z,102086.16
2023-05-12T21:01:04.660Z,102099.94
2023-05-12T21:03:33.692Z,102083.94
2023-05-12T21:06:01.327Z,102107.72
2023-05-12T21:08:28.625Z,102109.38
2023-05-12T21:10:56.141Z,102100.63
2023-05-12T21:13:23.353Z,102103.97
2023-05-12T21:15:50.618Z,102108.13
2023-05-12T21:18:17.701Z,102112.03
2023-05-12T21:20:44.995Z,102112.31
2023-05-12T21:23:13.631Z,102100.75
2023-05-12T21:25:40.784Z,102100.06
2023-05-12T21:28:07.979Z,102109.91
2023-05-12T21:30:37.357Z,102111.72
2023-05-12T21:33:05.953Z,102101.31
2023-05-12T21:35:33.331Z,102104.91
2023-05-12T21:38:02.945Z,102105.34
2023-05-12T21:40:30.396Z,102098.94
2023-05-12T21:42:57.801Z,102111.91
2023-05-12T21:45:27.388Z,102115.09
2023-05-12T21:47:54.664Z,102107.06
2023-05-12T21:50:22.344Z,102117.63
2023-05-12T21:52:50.528Z,102115.09
2023-05-12T21:55:17.929Z,102117.03
2023-05-12T21:57:45.745Z,102122.72
2023-05-12T22:00:15.346Z,102125.22
2023-05-12T22:02:42.626Z,102130.06
2023-05-12T22:05:10.134Z,102136.06
2023-05-12T22:07:37.356Z,102129.66
2023-05-12T22:10:05.174Z,102144.16
2023-05-12T22:12:32.329Z,102147.91
2023-05-12T22:14:59.969Z,102156.22
2023-05-12T22:17:27.293Z,102145.63
2023-05-12T22:19:54.518Z,102157.31
2023-05-12T22:22:21.581Z,102159.00
2023-05-12T22:24:48.696Z,102155.66
2023-05-12T22:27:21.774Z,102170.41
2023-05-12T22:29:49.023Z,102174.56
2023-05-12T22:32:16.451Z,102166.53
2023-05-12T22:34:43.752Z,102168.44
2023-05-12T22:37:11.113Z,102164.13
2023-05-12T22:39:38.297Z,102172.75
2023-05-12T22:42:06.528Z,102172.88
2023-05-12T22:44:33.749Z,102169.56
2023-05-12T22:47:03.289Z,102177.50
2023-05-12T22:49:30.397Z,102182.91
2023-05-12T22:51:57.662Z,102178.84
2023-05-12T22:54:24.866Z,102166.72
2023-05-12T22:56:52.122Z,102172.84
2023-05-12T22:59:19.259Z,102164.38
2023-05-12T23:01:46.618Z,102165.09
2023-05-12T23:04:13.849Z,102160.78
2023-05-12T23:06:41.317Z,102166.88
2023-05-12T23:09:09.607Z,102161.00
2023-05-12T23:11:36.690Z,102166.19
2023-05-12T23:14:03.857Z,102164.38
2023-05-12T23:16:31.052Z,102157.28
2023-05-12T23:18:58.525Z,102168.81
2023-05-12T23:21:25.974Z,102153.53
2023-05-12T23:23:55.915Z,102154.97
2023-05-12T23:26:23.227Z,102155.22
2023-05-12T23:28:51.036Z,102158.81
2023-05-12T23:31:18.424Z,102157.00
2023-05-12T23:33:45.920Z,102161.59
2023-05-12T23:36:14.028Z,102168.81
2023-05-12T23:38:41.661Z,102173.97
2023-05-12T23:41:09.079Z,102164.22
2023-05-12T23:43:36.526Z,102162.78
2023-05-12T23:46:04.141Z,102151.53
2023-05-12T23:48:31.458Z,102155.84
2023-05-12T23:50:58.660Z,102167.09
2023-05-12T23:53:26.295Z,102168.22
2023-05-12T23:55:53.685Z,102176.97
2023-05-12T23:58:20.952Z,102181.41
